Time;durP1;ratioP1;P1;durP2;ratioP2;P2;SDS_P1;SDS_P2;PMS_P1;PMS_P2;Temp;Humidity;BMP_temperature;BMP_pressure;BME280_temperature;BME280_humidity;BME280_pressure;Samples;Min_cycle;Max_cycle;Signal;HPM_P1;HPM_P2
2022/08/09 00:00:29;;;;;;;3.50;2.60;;;18.70;99.90;;;;;;5075133;28;20266;-71
2022/08/09 00:02:54;;;;;;;3.03;1.73;;;18.50;99.90;;;;;;5074011;28;20202;-76
2022/08/09 00:05:20;;;;;;;2.70;2.07;;;18.50;99.90;;;;;;5072509;28;20175;-73
2022/08/09 00:07:46;;;;;;;3.13;1.90;;;18.20;99.90;;;;;;5073253;28;20175;-74
2022/08/09 00:10:12;;;;;;;2.23;2.13;;;17.40;99.90;;;;;;5074921;28;20213;-77
2022/08/09 00:12:38;;;;;;;2.20;2.10;;;17.40;99.90;;;;;;5074371;28;20202;-71
2022/08/09 00:15:04;;;;;;;3.73;2.63;;;17.90;99.90;;;;;;5074957;28;20177;-74
2022/08/09 00:17:30;;;;;;;5.47;2.47;;;18.20;99.90;;;;;;5075125;28;20178;-78
2022/08/09 00:19:56;;;;;;;2.33;2.13;;;18.30;99.90;;;;;;5075092;28;20266;-74
2022/08/09 00:22:22;;;;;;;1.90;1.80;;;18.70;99.90;;;;;;5075366;28;20168;-73
2022/08/09 00:24:48;;;;;;;2.67;2.47;;;18.70;99.90;;;;;;5074268;28;20187;-71
2022/08/09 00:27:13;;;;;;;4.57;3.17;;;18.70;99.90;;;;;;5078154;28;20658;-71
2022/08/09 00:29:39;;;;;;;2.17;1.80;;;18.70;99.90;;;;;;5077573;28;20194;-71
2022/08/09 00:32:05;;;;;;;2.97;2.40;;;18.60;99.90;;;;;;5077360;28;20172;-77
2022/08/09 00:34:31;;;;;;;2.43;1.83;;;18.60;99.90;;;;;;5077291;28;20176;-74
2022/08/09 00:36:56;;;;;;;3.70;2.23;;;18.50;99.90;;;;;;5076607;28;20265;-73
2022/08/09 00:39:22;;;;;;;1.90;1.80;;;18.40;99.90;;;;;;5078354;28;20246;-81
2022/08/09 00:41:48;;;;;;;3.37;2.37;;;18.50;99.90;;;;;;5078064;28;20183;-74
2022/08/09 00:44:14;;;;;;;2.20;2.00;;;18.50;99.90;;;;;;5077826;28;20171;-79
2022/08/09 00:46:42;;;;;;;2.33;2.23;;;18.40;99.90;;;;;;5078806;28;20623;-71
2022/08/09 00:49:09;;;;;;;3.17;2.80;;;18.40;99.90;;;;;;5076076;28;20298;-80
2022/08/09 00:51:35;;;;;;;2.00;1.90;;;18.40;99.90;;;;;;5078445;28;20235;-71
2022/08/09 00:54:02;;;;;;;5.80;2.57;;;18.50;99.90;;;;;;5078226;28;20270;-81
2022/08/09 00:56:29;;;;;;;4.60;2.90;;;18.40;99.90;;;;;;5078287;28;20224;-70
2022/08/09 00:58:56;;;;;;;4.00;2.27;;;18.30;99.90;;;;;;5078176;28;20187;-72
2022/08/09 01:01:26;;;;;;;2.70;2.50;;;18.30;99.90;;;;;;5077373;28;20180;-82
2022/08/09 01:04:26;;;;;;;2.77;2.47;;;18.30;99.90;;;;;;5078248;28;20175;-74
2022/08/09 01:06:57;;;;;;;2.20;2.10;;;18.30;99.90;;;;;;5075873;28;20198;-70
2022/08/09 01:09:52;;;;;;;2.33;2.20;;;18.20;99.90;;;;;;5076885;28;20221;-71
2022/08/09 01:12:41;;;;;;;2.40;2.20;;;18.20;99.90;;;;;;5075313;28;20183;-76
2022/08/09 01:15:11;;;;;;;5.43;2.80;;;18.10;99.90;;;;;;5078016;28;20183;-72
2022/08/09 01:17:47;;;;;;;18.10;3.30;;;18.10;99.90;;;;;;5077778;28;20168;-70
2022/08/09 01:20:25;;;;;;;2.60;2.50;;;18.10;99.90;;;;;;5077450;28;20182;-70
2022/08/09 01:23:03;;;;;;;4.20;2.60;;;18.00;99.90;;;;;;5077685;28;20444;-75
2022/08/09 01:25:46;;;;;;;3.30;3.10;;;18.00;99.90;;;;;;5078022;28;20250;-72
2022/08/09 01:28:13;;;;;;;4.10;3.33;;;18.00;99.90;;;;;;5077643;28;20180;-82
2022/08/09 01:30:41;;;;;;;4.13;3.10;;;18.00;99.90;;;;;;5077926;28;20210;-76
2022/08/09 01:33:08;;;;;;;4.07;3.80;;;18.00;99.90;;;;;;5076814;28;20167;-82
2022/08/09 01:35:44;;;;;;;3.20;3.00;;;18.00;99.90;;;;;;5077319;28;20180;-72
2022/08/09 01:38:15;;;;;;;3.47;3.17;;;17.90;99.90;;;;;;5076365;28;20175;-83
2022/08/09 01:40:45;;;;;;;3.20;3.00;;;17.90;99.90;;;;;;5077689;28;20313;-70
2022/08/09 01:43:12;;;;;;;3.90;2.83;;;17.90;99.90;;;;;;5077830;28;20207;-74
2022/08/09 01:45:40;;;;;;;3.33;2.83;;;17.80;99.90;;;;;;5077257;28;20175;-79
2022/08/09 01:48:08;;;;;;;3.87;2.90;;;17.70;99.90;;;;;;5077726;28;20254;-77
2022/08/09 01:50:35;;;;;;;4.00;3.80;;;17.70;99.90;;;;;;5077786;28;20199;-79
2022/08/09 01:53:03;;;;;;;3.13;2.60;;;17.70;99.90;;;;;;5077230;28;20570;-82
2022/08/09 01:55:31;;;;;;;3.27;2.97;;;17.70;99.90;;;;;;5077319;28;20167;-88
2022/08/09 01:57:58;;;;;;;3.73;3.43;;;17.70;99.90;;;;;;5077570;28;20179;-83
2022/08/09 02:00:25;;;;;;;7.03;3.77;;;17.70;99.90;;;;;;5077760;28;20183;-83
2022/08/09 02:02:52;;;;;;;3.57;3.20;;;17.70;99.90;;;;;;5076665;28;20201;-86
2022/08/09 02:05:21;;;;;;;4.67;4.27;;;17.70;99.90;;;;;;5075792;28;20186;-84
2022/08/09 02:08:03;;;;;;;4.00;3.67;;;17.70;99.90;;;;;;5076665;28;20171;-86
2022/08/09 02:10:32;;;;;;;3.37;3.07;;;17.70;99.90;;;;;;5076336;28;20264;-87
2022/08/09 02:13:05;;;;;;;3.40;3.20;;;17.60;99.90;;;;;;5076061;28;20262;-85
2022/08/09 02:15:34;;;;;;;3.97;3.77;;;17.50;99.90;;;;;;5076608;28;20194;-85
2022/08/09 02:18:01;;;;;;;5.93;3.67;;;17.40;99.90;;;;;;5077347;28;20313;-88
2022/08/09 02:20:31;;;;;;;4.50;4.10;;;17.30;99.90;;;;;;5076904;28;20198;-85
2022/08/09 02:23:05;;;;;;;5.23;3.70;;;17.30;99.90;;;;;;5077224;28;20171;-85
2022/08/09 02:25:35;;;;;;;4.67;4.33;;;17.10;99.90;;;;;;5077268;28;20171;-90
2022/08/09 02:28:20;;;;;;;4.23;3.93;;;16.90;99.90;;;;;;5077294;28;20175;-89
2022/08/09 02:30:53;;;;;;;4.53;4.13;;;16.70;99.90;;;;;;5077193;28;20207;-88
2022/08/09 02:33:23;;;;;;;5.50;5.03;;;16.70;99.90;;;;;;5077607;28;20170;-91
2022/08/09 02:35:53;;;;;;;5.63;5.13;;;16.50;99.90;;;;;;5076623;28;20179;-89
2022/08/09 02:38:26;;;;;;;9.00;3.83;;;15.50;99.90;;;;;;5076986;28;20264;-85
2022/08/09 02:41:06;;;;;;;6.13;4.23;;;11.80;99.90;;;;;;5077723;28;20167;-88
2022/08/09 02:43:33;;;;;;;6.20;4.20;;;12.10;99.90;;;;;;5075980;28;20179;-86
2022/08/09 02:46:00;;;;;;;5.13;4.30;;;17.30;99.90;;;;;;5077051;28;20175;-86
2022/08/09 02:48:29;;;;;;;4.77;4.37;;;17.30;99.90;;;;;;5077208;28;20559;-84
2022/08/09 02:50:57;;;;;;;4.73;4.30;;;17.20;99.90;;;;;;5075613;28;20203;-89
2022/08/09 02:53:33;;;;;;;5.93;5.40;;;17.30;99.90;;;;;;5076093;28;20207;-83
2022/08/09 02:56:02;;;;;;;9.17;5.20;;;17.30;99.90;;;;;;5076806;28;20174;-80
2022/08/09 02:58:31;;;;;;;4.07;3.77;;;17.20;99.90;;;;;;5075009;28;20435;-86
2022/08/09 03:00:58;;;;;;;4.40;4.03;;;17.20;99.90;;;;;;5075499;28;20172;-87
2022/08/09 03:03:25;;;;;;;4.93;4.53;;;17.20;99.90;;;;;;5076340;28;20171;-84
2022/08/09 03:05:52;;;;;;;4.10;3.90;;;17.10;99.90;;;;;;5074885;28;20175;-87
2022/08/09 03:08:20;;;;;;;5.83;4.60;;;17.00;99.90;;;;;;5074379;28;20270;-84
2022/08/09 03:10:48;;;;;;;4.13;3.83;;;16.90;99.90;;;;;;5076338;28;20195;-81
2022/08/09 03:13:15;;;;;;;8.27;4.17;;;16.90;99.90;;;;;;5076302;28;20576;-82
2022/08/09 03:15:42;;;;;;;6.37;5.53;;;16.90;99.90;;;;;;5074914;28;20203;-85
2022/08/09 03:18:10;;;;;;;4.83;4.43;;;16.70;99.90;;;;;;5076263;28;20191;-90
2022/08/09 03:20:40;;;;;;;6.07;4.27;;;16.60;99.90;;;;;;5076965;28;20222;-92
2022/08/09 03:23:06;;;;;;;8.43;5.30;;;16.40;99.90;;;;;;5076993;28;20168;-82
2022/08/09 03:25:33;;;;;;;4.43;4.13;;;16.40;99.90;;;;;;5076177;28;20182;-89
2022/08/09 03:28:01;;;;;;;4.80;4.50;;;16.00;99.90;;;;;;5076193;28;20179;-84
2022/08/09 03:30:28;;;;;;;5.67;5.27;;;15.60;99.90;;;;;;5074598;28;20344;-85
2022/08/09 03:32:55;;;;;;;6.57;4.50;;;14.50;99.90;;;;;;5074940;28;20179;-86
2022/08/09 03:35:21;;;;;;;5.70;5.07;;;15.20;99.90;;;;;;5076796;28;20190;-89
2022/08/09 03:37:48;;;;;;;5.83;5.43;;;14.80;99.90;;;;;;5076401;28;20566;-89
2022/08/09 03:40:14;;;;;;;5.43;4.80;;;14.60;99.90;;;;;;5075443;28;20199;-90
2022/08/09 03:42:40;;;;;;;5.93;5.33;;;14.20;99.90;;;;;;5076818;28;20201;-92
2022/08/09 03:45:06;;;;;;;5.50;5.07;;;13.20;99.90;;;;;;5076935;28;20482;-91
2022/08/09 03:47:33;;;;;;;5.80;5.33;;;13.10;99.90;;;;;;5074966;28;20510;-89
2022/08/09 03:50:01;;;;;;;5.13;4.73;;;14.70;99.90;;;;;;5077078;28;20206;-89
2022/08/09 03:52:29;;;;;;;5.40;4.93;;;14.70;99.90;;;;;;5077192;28;20217;-90
2022/08/09 03:54:56;;;;;;;4.80;4.40;;;14.90;99.90;;;;;;5077287;28;20598;-88
2022/08/09 03:57:22;;;;;;;6.13;5.13;;;14.60;99.90;;;;;;5078886;28;20171;-89
2022/08/09 03:59:52;;;;;;;5.47;4.97;;;14.60;99.90;;;;;;5077970;28;20255;-86
2022/08/09 04:02:19;;;;;;;5.17;4.63;;;14.00;99.90;;;;;;5078461;28;20171;-90
2022/08/09 04:04:45;;;;;;;4.83;4.40;;;13.10;99.90;;;;;;5078291;28;20175;-91
2022/08/09 04:07:10;;;;;;;5.60;4.30;;;16.70;99.90;;;;;;5077131;28;20450;-82
2022/08/09 04:09:36;;;;;;;5.37;4.70;;;16.60;99.90;;;;;;5075192;28;20203;-81
2022/08/09 04:12:08;;;;;;;10.50;5.13;;;16.60;99.90;;;;;;5075436;28;20180;-86
2022/08/09 04:14:34;;;;;;;7.77;4.77;;;16.60;99.90;;;;;;5074887;28;20171;-89
2022/08/09 04:17:00;;;;;;;13.23;5.77;;;16.60;99.90;;;;;;5076974;28;20191;-92
2022/08/09 04:19:25;;;;;;;6.70;6.00;;;16.60;99.90;;;;;;5075174;28;20210;-80
2022/08/09 04:21:51;;;;;;;5.10;4.60;;;16.60;99.90;;;;;;5074443;28;20172;-84
2022/08/09 04:24:17;;;;;;;9.10;5.07;;;16.60;99.90;;;;;;5075399;28;20465;-78
2022/08/09 04:26:43;;;;;;;5.40;4.90;;;16.70;99.90;;;;;;5074699;28;20213;-81
2022/08/09 04:29:12;;;;;;;5.60;5.17;;;16.60;99.90;;;;;;5074973;28;20195;-81
2022/08/09 04:31:38;;;;;;;5.70;4.57;;;16.60;99.90;;;;;;5074849;28;20179;-84
2022/08/09 04:34:04;;;;;;;5.63;4.60;;;16.60;99.90;;;;;;5073755;28;20167;-71
2022/08/09 04:36:31;;;;;;;8.70;5.00;;;16.60;99.90;;;;;;5073381;28;20168;-83
2022/08/09 04:38:59;;;;;;;6.13;5.30;;;16.60;99.90;;;;;;5074827;28;20241;-82
2022/08/09 04:41:25;;;;;;;6.33;5.73;;;16.50;99.90;;;;;;5075001;28;20171;-84
2022/08/09 04:43:52;;;;;;;8.93;5.30;;;16.60;99.90;;;;;;5074933;28;20469;-82
2022/08/09 04:46:18;;;;;;;9.43;4.97;;;16.50;99.90;;;;;;5074144;28;20164;-85
2022/08/09 04:48:43;;;;;;;5.73;4.80;;;16.50;99.90;;;;;;5074837;28;20168;-84
2022/08/09 04:51:09;;;;;;;5.57;5.17;;;16.40;99.90;;;;;;5075195;28;20160;-81
2022/08/09 04:53:35;;;;;;;5.87;5.10;;;16.30;99.90;;;;;;5075129;28;20184;-81
2022/08/09 04:56:01;;;;;;;5.10;4.53;;;16.30;99.90;;;;;;5075140;28;20252;-77
2022/08/09 04:58:27;;;;;;;5.07;4.53;;;16.20;99.90;;;;;;5074242;28;20536;-78
2022/08/09 05:00:54;;;;;;;6.77;5.50;;;16.20;99.90;;;;;;5074586;28;20213;-81
2022/08/09 05:03:20;;;;;;;8.93;7.00;;;16.10;99.90;;;;;;5073544;28;20193;-83
2022/08/09 05:05:47;;;;;;;5.80;5.30;;;15.90;99.90;;;;;;5074691;28;20537;-80
2022/08/09 05:08:13;;;;;;;5.43;4.93;;;15.60;99.90;;;;;;5074022;28;20582;-82
2022/08/09 05:10:39;;;;;;;5.47;5.07;;;15.50;99.90;;;;;;5074961;28;20191;-86
2022/08/09 05:13:04;;;;;;;12.63;5.37;;;15.60;99.90;;;;;;5076080;28;20581;-85
2022/08/09 05:15:30;;;;;;;6.60;5.93;;;15.50;99.90;;;;;;5081704;28;20163;-77
2022/08/09 05:17:56;;;;;;;10.87;6.60;;;15.60;99.90;;;;;;5094507;28;20178;-76
2022/08/09 05:20:24;;;;;;;7.33;6.00;;;15.40;99.90;;;;;;5119762;28;20215;-84
2022/08/09 05:22:52;;;;;;;6.00;5.37;;;15.30;99.90;;;;;;5119249;28;20170;-83
2022/08/09 05:25:21;;;;;;;7.47;6.83;;;15.30;99.90;;;;;;5120166;28;20158;-86
2022/08/09 05:27:49;;;;;;;9.63;5.40;;;15.30;99.90;;;;;;5119075;28;20426;-71
2022/08/09 05:30:16;;;;;;;9.43;6.63;;;15.30;99.90;;;;;;5117779;28;20313;-75
2022/08/09 05:32:45;;;;;;;7.73;6.23;;;15.40;99.90;;;;;;5119198;27;20242;-73
2022/08/09 05:35:11;;;;;;;7.80;6.63;;;15.50;99.90;;;;;;5113037;28;20165;-79
2022/08/09 05:37:37;;;;;;;7.57;6.13;;;15.50;99.90;;;;;;5103870;28;20182;-84
2022/08/09 05:40:05;;;;;;;8.17;5.37;;;15.60;99.90;;;;;;5110966;28;20170;-77
2022/08/09 05:42:31;;;;;;;7.23;6.53;;;15.60;99.90;;;;;;5116838;28;20177;-82
2022/08/09 05:44:57;;;;;;;6.90;5.37;;;15.70;99.90;;;;;;5100602;28;20186;-77
2022/08/09 05:47:24;;;;;;;7.00;6.33;;;15.80;99.90;;;;;;5095924;28;20206;-69
2022/08/09 05:49:51;;;;;;;6.80;5.83;;;15.90;99.90;;;;;;5095020;28;20194;-74
2022/08/09 05:52:17;;;;;;;7.43;6.77;;;16.00;99.90;;;;;;5095411;28;20489;-69
2022/08/09 05:54:43;;;;;;;6.47;5.83;;;16.50;99.90;;;;;;5097971;28;20171;-72
2022/08/09 05:57:09;;;;;;;7.17;6.57;;;16.50;99.90;;;;;;5096508;28;20617;-70
2022/08/09 05:59:35;;;;;;;7.23;6.50;;;16.50;99.90;;;;;;5094568;28;20655;-76
2022/08/09 06:02:00;;;;;;;7.03;6.47;;;16.40;99.90;;;;;;5103896;28;20209;-69
2022/08/09 06:04:26;;;;;;;6.70;6.00;;;16.50;99.90;;;;;;5101987;28;20177;-71
2022/08/09 06:06:52;;;;;;;6.70;6.07;;;16.50;99.90;;;;;;5096384;28;20186;-69
2022/08/09 06:09:19;;;;;;;7.03;6.07;;;16.60;99.90;;;;;;5097415;28;20561;-74
2022/08/09 06:11:45;;;;;;;8.03;7.17;;;16.60;99.90;;;;;;5097011;28;20155;-70
2022/08/09 06:14:11;;;;;;;9.27;6.70;;;16.70;99.90;;;;;;5096286;28;20220;-70
2022/08/09 06:16:37;;;;;;;11.77;7.53;;;17.00;99.90;;;;;;5096828;28;20170;-70
2022/08/09 06:19:03;;;;;;;9.50;5.87;;;17.40;99.90;;;;;;5097537;28;20589;-75
2022/08/09 06:21:29;;;;;;;7.33;6.63;;;17.40;99.90;;;;;;5097159;28;20175;-77
2022/08/09 06:23:55;;;;;;;6.13;5.63;;;17.50;99.90;;;;;;5079526;28;20545;-75
2022/08/09 06:26:22;;;;;;;7.30;6.60;;;17.60;99.90;;;;;;5076439;28;20452;-71
2022/08/09 06:28:53;;;;;;;6.53;6.03;;;17.70;99.90;;;;;;5075922;28;20179;-72
2022/08/09 06:31:19;;;;;;;8.73;6.57;;;17.80;99.90;;;;;;5076749;28;20468;-71
2022/08/09 06:33:44;;;;;;;7.93;6.63;;;17.80;99.90;;;;;;5076765;28;20170;-72
2022/08/09 06:36:10;;;;;;;7.17;6.50;;;17.90;99.90;;;;;;5079039;28;20163;-75
2022/08/09 06:38:37;;;;;;;6.70;5.33;;;17.90;99.90;;;;;;5087037;28;20182;-70
2022/08/09 06:41:03;;;;;;;7.17;6.50;;;17.90;99.90;;;;;;5081248;28;20494;-77
2022/08/09 06:43:29;;;;;;;6.50;5.80;;;18.00;99.90;;;;;;5076346;28;20480;-80
2022/08/09 06:45:55;;;;;;;7.07;5.53;;;18.10;99.90;;;;;;5076823;28;20171;-69
2022/08/09 06:48:21;;;;;;;9.10;5.93;;;18.10;99.90;;;;;;5076618;28;20469;-79
2022/08/09 06:50:46;;;;;;;7.70;5.73;;;18.20;99.90;;;;;;5076157;28;20195;-72
2022/08/09 06:53:12;;;;;;;6.23;5.13;;;18.30;99.90;;;;;;5076504;28;20459;-70
2022/08/09 06:55:38;;;;;;;6.97;6.27;;;18.40;99.90;;;;;;5076049;28;20175;-72
2022/08/09 06:58:04;;;;;;;6.47;5.67;;;18.50;99.90;;;;;;5081055;28;20255;-69
2022/08/09 07:00:31;;;;;;;6.63;6.13;;;18.50;99.90;;;;;;5079234;28;20187;-68
2022/08/09 07:02:57;;;;;;;6.30;5.30;;;18.50;99.90;;;;;;5076397;28;20168;-70
2022/08/09 07:05:24;;;;;;;7.50;5.80;;;18.50;99.90;;;;;;5075612;28;20178;-71
2022/08/09 07:07:50;;;;;;;6.63;5.13;;;18.50;99.90;;;;;;5075771;28;20233;-71
2022/08/09 07:10:16;;;;;;;9.77;5.27;;;18.50;99.90;;;;;;5075508;28;20608;-70
2022/08/09 07:12:41;;;;;;;7.10;4.87;;;18.50;99.90;;;;;;5075658;28;20168;-72
2022/08/09 07:15:08;;;;;;;9.73;6.07;;;18.50;99.90;;;;;;5090280;28;20605;-73
2022/08/09 07:17:34;;;;;;;5.90;4.57;;;18.20;99.90;;;;;;5095791;28;20186;-75
2022/08/09 07:19:59;;;;;;;5.63;5.13;;;15.90;99.90;;;;;;5096296;28;20197;-71
2022/08/09 07:22:25;;;;;;;7.53;5.50;;;18.90;99.90;;;;;;5095865;28;20205;-80
2022/08/09 07:24:51;;;;;;;6.17;4.57;;;19.00;99.90;;;;;;5095723;28;20170;-72
2022/08/09 07:27:17;;;;;;;9.77;5.03;;;19.10;99.90;;;;;;5096026;28;20167;-79
2022/08/09 07:29:42;;;;;;;4.80;4.50;;;19.10;99.90;;;;;;5095936;28;20655;-77
2022/08/09 07:32:08;;;;;;;5.83;4.43;;;19.10;99.90;;;;;;5096120;28;20193;-74
2022/08/09 07:34:34;;;;;;;4.70;4.37;;;19.00;99.90;;;;;;5095880;28;20166;-76
2022/08/09 07:37:00;;;;;;;5.90;5.30;;;18.90;99.90;;;;;;5094512;28;20193;-74
2022/08/09 07:39:26;;;;;;;4.77;4.30;;;18.90;99.90;;;;;;5095245;28;20171;-76
2022/08/09 07:41:51;;;;;;;5.13;4.43;;;18.90;99.90;;;;;;5095911;28;20166;-72
2022/08/09 07:44:17;;;;;;;6.33;4.90;;;18.80;99.90;;;;;;5095506;28;20613;-73
2022/08/09 07:46:43;;;;;;;8.70;5.67;;;18.60;99.90;;;;;;5095300;28;20213;-71
2022/08/09 07:49:09;;;;;;;9.03;5.80;;;17.90;99.90;;;;;;5095567;28;20206;-70
2022/08/09 07:51:35;;;;;;;8.60;6.20;;;17.70;99.90;;;;;;5095467;28;20640;-72
2022/08/09 07:54:01;;;;;;;15.50;8.07;;;17.10;99.90;;;;;;5095182;28;20190;-78
2022/08/09 07:56:26;;;;;;;6.57;4.27;;;16.50;99.90;;;;;;5095754;28;20183;-70
2022/08/09 07:58:53;;;;;;;4.33;3.77;;;16.70;99.90;;;;;;5095300;28;20471;-71
2022/08/09 08:01:18;;;;;;;4.27;3.87;;;16.50;99.90;;;;;;5095076;28;20190;-75
2022/08/09 08:03:44;;;;;;;4.27;3.97;;;16.00;99.90;;;;;;5095345;28;20562;-71
2022/08/09 08:06:10;;;;;;;4.73;3.33;;;19.60;99.90;;;;;;5095646;28;20209;-71
2022/08/09 08:08:37;;;;;;;3.53;2.83;;;20.00;99.90;;;;;;5094989;28;20583;-71
2022/08/09 08:11:03;;;;;;;7.57;3.13;;;20.00;99.90;;;;;;5094046;28;20198;-71
2022/08/09 08:13:29;;;;;;;3.67;3.37;;;20.10;99.90;;;;;;5091740;28;20241;-70
2022/08/09 08:15:54;;;;;;;3.10;2.90;;;20.10;99.90;;;;;;5075216;28;20172;-73
2022/08/09 08:18:20;;;;;;;8.10;3.17;;;20.10;99.90;;;;;;5075279;28;20167;-70
2022/08/09 08:20:46;;;;;;;5.70;3.80;;;20.10;99.90;;;;;;5075076;28;20167;-72
2022/08/09 08:23:12;;;;;;;5.07;3.77;;;20.10;99.90;;;;;;5074997;28;20233;-74
2022/08/09 08:25:38;;;;;;;4.30;2.60;;;20.10;99.90;;;;;;5075245;28;20178;-75
2022/08/09 08:28:04;;;;;;;3.03;2.73;;;19.80;99.90;;;;;;5075094;28;20168;-77
2022/08/09 08:30:30;;;;;;;5.23;3.30;;;17.20;99.90;;;;;;5074954;28;20699;-77
2022/08/09 08:32:56;;;;;;;3.57;3.27;;;20.90;99.90;;;;;;5075216;28;20167;-76
2022/08/09 08:35:22;;;;;;;5.30;3.50;;;20.90;99.90;;;;;;5075036;28;20175;-78
2022/08/09 08:37:48;;;;;;;3.63;3.33;;;21.00;99.90;;;;;;5074910;28;20294;-75
2022/08/09 08:40:14;;;;;;;7.80;2.90;;;20.90;99.90;;;;;;5074921;28;20258;-72
2022/08/09 08:42:41;;;;;;;3.73;3.13;;;20.70;99.90;;;;;;5074961;28;20179;-78
2022/08/09 08:45:09;;;;;;;4.40;2.67;;;20.30;99.90;;;;;;5090561;28;20179;-73
2022/08/09 08:47:35;;;;;;;3.97;2.60;;;18.70;99.90;;;;;;5095566;28;20228;-75
2022/08/09 08:50:02;;;;;;;2.60;2.40;;;21.60;99.90;;;;;;5098738;28;20191;-78
2022/08/09 08:52:29;;;;;;;5.13;2.00;;;21.50;99.90;;;;;;5098598;28;20250;-76
2022/08/09 08:54:59;;;;;;;3.27;2.87;;;21.60;99.90;;;;;;5098502;28;20163;-76
2022/08/09 08:57:26;;;;;;;3.70;2.30;;;21.50;99.90;;;;;;5098502;28;20174;-73
2022/08/09 08:59:53;;;;;;;3.40;2.47;;;21.30;99.90;;;;;;5098559;28;20229;-72
2022/08/09 09:02:27;;;;;;;2.07;1.60;;;21.10;99.90;;;;;;5098968;28;20203;-76
2022/08/09 09:04:55;;;;;;;2.47;1.70;;;19.20;99.90;;;;;;5098522;28;20174;-76
2022/08/09 09:07:23;;;;;;;3.23;2.03;;;21.70;99.90;;;;;;5097388;28;20585;-81
2022/08/09 09:09:51;;;;;;;6.23;2.40;;;22.10;99.90;;;;;;5097455;28;20194;-82
2022/08/09 09:12:22;;;;;;;13.07;4.10;;;22.10;99.90;;;;;;5098754;28;20189;-75
2022/08/09 09:14:49;;;;;;;3.00;1.97;;;22.00;99.90;;;;;;5086270;28;20175;-78
2022/08/09 09:17:15;;;;;;;2.80;1.90;;;17.70;99.90;;;;;;5077153;28;20183;-82
2022/08/09 09:19:41;;;;;;;5.47;2.27;;;22.60;99.90;;;;;;5078173;28;20190;-77
2022/08/09 09:22:10;;;;;;;3.03;1.60;;;22.70;99.90;;;;;;5078136;28;20224;-78
2022/08/09 09:24:38;;;;;;;6.00;2.00;;;22.80;99.90;;;;;;5077247;28;20648;-80
2022/08/09 09:27:05;;;;;;;2.13;1.53;;;22.90;99.90;;;;;;5093561;28;20260;-79
2022/08/09 09:29:33;;;;;;;2.43;1.77;;;23.00;99.90;;;;;;5098178;28;20332;-80
2022/08/09 09:32:00;;;;;;;5.07;1.60;;;22.90;99.90;;;;;;5098414;28;20198;-77
2022/08/09 09:34:26;;;;;;;1.63;1.53;;;22.30;99.90;;;;;;5098028;28;20166;-79
2022/08/09 09:36:53;;;;;;;4.43;1.93;;;23.30;99.90;;;;;;5097997;28;20263;-80
2022/08/09 09:39:21;;;;;;;1.90;1.67;;;23.40;99.90;;;;;;5097219;28;20609;-75
2022/08/09 09:41:48;;;;;;;4.50;1.93;;;23.40;99.90;;;;;;5097740;28;20266;-75
2022/08/09 09:44:28;;;;;;;2.80;2.30;;;23.50;99.90;;;;;;5098154;28;20179;-77
2022/08/09 09:46:56;;;;;;;2.57;2.37;;;23.40;99.90;;;;;;5098028;28;20170;-84
2022/08/09 09:49:23;;;;;;;3.40;2.30;;;23.30;99.90;;;;;;5098820;28;20193;-79
2022/08/09 09:51:58;;;;;;;6.63;2.50;;;23.30;99.90;;;;;;5097630;28;20178;-78
2022/08/09 09:54:24;;;;;;;3.67;2.27;;;23.30;99.90;;;;;;5096950;28;20588;-78
2022/08/09 09:56:50;;;;;;;5.93;2.60;;;23.30;99.90;;;;;;5097766;28;20167;-84
2022/08/09 09:59:33;;;;;;;5.97;2.70;;;23.30;99.90;;;;;;5097250;28;20187;-78
2022/08/09 10:01:59;;;;;;;3.43;2.60;;;23.00;99.90;;;;;;5096501;28;20182;-79
2022/08/09 10:04:26;;;;;;;2.10;2.00;;;21.40;99.40;;;;;;5097589;28;20171;-79
2022/08/09 10:06:51;;;;;;;3.47;2.63;;;24.00;99.90;;;;;;5096059;28;20612;-77
2022/08/09 10:09:17;;;;;;;3.60;1.60;;;24.10;99.90;;;;;;5097431;28;20222;-78
2022/08/09 10:11:43;;;;;;;2.40;1.50;;;24.30;99.90;;;;;;5097202;28;20163;-75
2022/08/09 10:14:24;;;;;;;3.23;1.57;;;24.30;99.90;;;;;;5097261;28;20179;-76
2022/08/09 10:16:49;;;;;;;5.17;2.47;;;24.40;99.30;;;;;;5097080;28;20182;-77
2022/08/09 10:19:15;;;;;;;2.30;2.07;;;24.50;99.00;;;;;;5097046;28;20192;-76
2022/08/09 10:21:49;;;;;;;5.60;2.43;;;24.40;99.40;;;;;;5097172;28;20170;-77
2022/08/09 10:24:18;;;;;;;2.67;2.13;;;22.20;97.60;;;;;;5097393;28;20473;-75
2022/08/09 10:26:45;;;;;;;2.33;1.93;;;24.60;97.90;;;;;;5095799;28;20570;-77
2022/08/09 10:29:12;;;;;;;3.30;1.50;;;24.60;97.80;;;;;;5095610;28;20485;-77
2022/08/09 10:31:41;;;;;;;4.83;2.00;;;24.60;97.90;;;;;;5097020;28;20562;-76
2022/08/09 10:34:11;;;;;;;2.30;1.50;;;24.60;97.50;;;;;;5096803;28;20186;-76
2022/08/09 10:36:37;;;;;;;2.00;1.80;;;24.40;97.10;;;;;;5096980;28;20202;-75
2022/08/09 10:39:04;;;;;;;2.93;2.63;;;24.00;96.80;;;;;;5096939;28;20159;-77
2022/08/09 10:41:29;;;;;;;3.50;1.70;;;25.20;96.60;;;;;;5094881;28;20596;-78
2022/08/09 10:43:56;;;;;;;4.00;2.27;;;25.20;96.80;;;;;;5096834;28;20175;-77
2022/08/09 10:46:28;;;;;;;3.07;2.13;;;25.30;96.60;;;;;;5096870;28;20173;-75
2022/08/09 10:49:23;;;;;;;4.57;1.93;;;25.10;96.70;;;;;;5078659;28;20179;-76
2022/08/09 10:52:13;;;;;;;2.57;1.77;;;25.00;96.60;;;;;;5061057;28;20180;-77
2022/08/09 10:54:39;;;;;;;2.93;1.73;;;25.10;97.30;;;;;;5076471;28;20180;-77
2022/08/09 10:57:12;;;;;;;2.93;2.37;;;25.30;96.70;;;;;;5076287;28;20163;-76
2022/08/09 10:59:39;;;;;;;3.37;1.70;;;25.20;96.70;;;;;;5083203;28;20201;-78
2022/08/09 11:02:12;;;;;;;5.03;1.83;;;25.90;95.90;;;;;;5096368;28;20502;-77
2022/08/09 11:04:38;;;;;;;4.77;2.40;;;25.90;95.80;;;;;;5096643;28;20521;-77
2022/08/09 11:07:04;;;;;;;3.33;2.10;;;25.70;95.90;;;;;;5096253;28;20174;-77
2022/08/09 11:09:42;;;;;;;2.50;2.13;;;25.30;95.70;;;;;;5096096;28;20209;-78
2022/08/09 11:12:13;;;;;;;2.33;2.13;;;25.20;94.90;;;;;;5095650;28;20208;-78
2022/08/09 11:14:43;;;;;;;2.03;1.90;;;24.50;94.30;;;;;;5096486;28;20167;-78
2022/08/09 11:17:12;;;;;;;1.73;1.73;;;-38.10;58.40;;;;;;5095801;28;20655;-76
2022/08/09 11:19:58;;;;;;;6.20;2.07;;;-40.00;58.60;;;;;;5096250;28;20183;-77
2022/08/09 11:22:42;;;;;;;4.03;1.63;;;-35.70;61.40;;;;;;5095154;28;20595;-77
2022/08/09 11:25:17;;;;;;;2.10;1.80;;;-35.70;59.80;;;;;;5096063;28;20171;-74
2022/08/09 11:27:45;;;;;;;2.90;1.67;;;-40.00;57.10;;;;;;5095976;28;20260;-76
2022/08/09 11:30:13;;;;;;;4.60;1.90;;;26.20;94.70;;;;;;5095905;28;20210;-76
2022/08/09 11:32:39;;;;;;;3.23;1.83;;;26.90;94.30;;;;;;5095596;28;20171;-76
2022/08/09 11:35:26;;;;;;;4.37;1.97;;;26.60;93.90;;;;;;5094961;28;20590;-76
2022/08/09 11:37:55;;;;;;;1.97;1.63;;;27.20;94.00;;;;;;5095739;28;20205;-76
2022/08/09 11:40:28;;;;;;;3.20;2.00;;;27.30;93.20;;;;;;5095851;28;20482;-76
2022/08/09 11:42:55;;;;;;;2.63;1.50;;;27.20;94.00;;;;;;5095285;28;20174;-74
2022/08/09 11:45:31;;;;;;;2.13;1.93;;;-40.00;54.70;;;;;;5096390;28;20227;-76
2022/08/09 11:48:02;;;;;;;4.37;1.50;;;27.90;93.30;;;;;;5097504;28;20272;-77
2022/08/09 11:50:28;;;;;;;1.50;1.40;;;27.00;92.20;;;;;;5096994;28;20320;-76
2022/08/09 11:53:01;;;;;;;3.87;2.70;;;25.40;90.90;;;;;;5096165;28;20241;-77
2022/08/09 11:55:41;;;;;;;2.33;1.43;;;29.60;91.80;;;;;;5095544;28;20166;-77
2022/08/09 11:58:12;;;;;;;3.13;1.60;;;29.90;88.70;;;;;;5095579;28;20175;-75
2022/08/09 12:00:48;;;;;;;5.77;2.33;;;30.00;90.30;;;;;;5097076;28;20229;-76
2022/08/09 12:03:16;;;;;;;4.85;1.58;;;-40.00;46.30;;;;;;5096323;28;20596;-79
2022/08/09 12:05:42;;;;;;;3.08;2.20;;;30.80;88.00;;;;;;5096722;28;20175;-75
2022/08/09 12:08:09;;;;;;;1.67;1.58;;;-40.00;45.50;;;;;;5096627;28;20193;-80
2022/08/09 12:10:41;;;;;;;6.60;1.88;;;31.50;81.90;;;;;;5096275;28;20448;-76
2022/08/09 12:13:07;;;;;;;5.35;1.83;;;31.50;82.00;;;;;;5095746;28;20261;-73
2022/08/09 12:15:33;;;;;;;2.88;1.30;;;31.60;81.40;;;;;;5095500;28;20251;-76
2022/08/09 12:17:59;;;;;;;5.75;1.67;;;31.40;83.10;;;;;;5095643;28;20173;-77
2022/08/09 12:20:26;;;;;;;12.57;1.88;;;31.60;84.10;;;;;;5096492;28;20166;-75
2022/08/09 12:22:58;;;;;;;2.50;1.60;;;30.80;79.90;;;;;;5098810;28;20170;-74
2022/08/09 12:25:25;;;;;;;2.55;1.75;;;-40.00;38.50;;;;;;5099326;28;20185;-72
2022/08/09 12:28:12;;;;;;;5.10;2.88;;;-40.00;38.60;;;;;;5099225;28;20175;-76
2022/08/09 12:30:38;;;;;;;4.55;1.50;;;-40.00;37.60;;;;;;5099443;28;20617;-77
2022/08/09 12:33:06;;;;;;;5.13;2.17;;;-40.00;38.60;;;;;;5099854;28;20194;-77
2022/08/09 12:35:32;;;;;;;1.70;1.60;;;-40.00;36.40;;;;;;5099245;28;20171;-77
2022/08/09 12:38:14;;;;;;;2.70;1.70;;;-40.00;36.10;;;;;;5099366;28;20167;-76
2022/08/09 12:40:49;;;;;;;3.85;2.60;;;-40.00;34.60;;;;;;5099775;28;20175;-76
2022/08/09 12:43:18;;;;;;;5.25;1.80;;;-39.60;34.40;;;;;;5099627;28;20166;-71
2022/08/09 12:45:46;;;;;;;3.70;1.60;;;-31.30;39.00;;;;;;5098700;28;20266;-76
2022/08/09 12:48:13;;;;;;;1.42;1.33;;;-22.10;42.00;;;;;;5099058;28;20593;-75
2022/08/09 12:50:39;;;;;;;2.67;1.42;;;-26.30;40.30;;;;;;5098898;28;20210;-72